sensor_id;sensor_type;location;lat;lon;timestamp;P1;P2;P0
78408;PMS5003;67697;50.750;-3.270;2023-07-13T00:00:19;6;5;
78408;PMS5003;67697;50.750;-3.270;2023-07-13T00:02:45;5;5;
78408;PMS5003;67697;50.750;-3.270;2023-07-13T00:05:10;5;5;
78408;PMS5003;67697;50.750;-3.270;2023-07-13T00:07:36;7;5;
78408;PMS5003;67697;50.750;-3.270;2023-07-13T00:10:03;7;6;
78408;PMS5003;67697;50.750;-3.270;2023-07-13T00:12:28;5;5;
78408;PMS5003;67697;50.750;-3.270;2023-07-13T00:14:53;5;5;
78408;PMS5003;67697;50.750;-3.270;2023-07-13T00:17:18;4;4;
78408;PMS5003;67697;50.750;-3.270;2023-07-13T00:19:44;5;5;
78408;PMS5003;67697;50.750;-3.270;2023-07-13T00:22:10;5;5;
78408;PMS5003;67697;50.750;-3.270;2023-07-13T00:24:35;5;4;
78408;PMS5003;67697;50.750;-3.270;2023-07-13T00:27:01;6;5;
78408;PMS5003;67697;50.750;-3.270;2023-07-13T00:29:31;7;5;
78408;PMS5003;67697;50.750;-3.270;2023-07-13T00:31:52;5;5;
78408;PMS5003;67697;50.750;-3.270;2023-07-13T00:34:18;5;5;
78408;PMS5003;67697;50.750;-3.270;2023-07-13T00:36:43;4;4;
78408;PMS5003;67697;50.750;-3.270;2023-07-13T00:39:09;3;3;
78408;PMS5003;67697;50.750;-3.270;2023-07-13T00:41:35;5;5;
78408;PMS5003;67697;50.750;-3.270;2023-07-13T00:44:00;4;4;
78408;PMS5003;67697;50.750;-3.270;2023-07-13T00:46:26;5;4;
78408;PMS5003;67697;50.750;-3.270;2023-07-13T00:48:51;5;5;
78408;PMS5003;67697;50.750;-3.270;2023-07-13T00:51:18;5;3;
78408;PMS5003;67697;50.750;-3.270;2023-07-13T00:53:42;4;4;
78408;PMS5003;67697;50.750;-3.270;2023-07-13T00:56:08;4;4;
78408;PMS5003;67697;50.750;-3.270;2023-07-13T00:58:33;7;5;
78408;PMS5003;67697;50.750;-3.270;2023-07-13T01:00:59;7;7;
78408;PMS5003;67697;50.750;-3.270;2023-07-13T01:03:24;4;4;
78408;PMS5003;67697;50.750;-3.270;2023-07-13T01:05:50;5;5;
78408;PMS5003;67697;50.750;-3.270;2023-07-13T01:08:16;5;3;
78408;PMS5003;67697;50.750;-3.270;2023-07-13T01:10:42;5;4;
78408;PMS5003;67697;50.750;-3.270;2023-07-13T01:13:12;4;3;
78408;PMS5003;67697;50.750;-3.270;2023-07-13T01:15:34;6;5;
78408;PMS5003;67697;50.750;-3.270;2023-07-13T01:17:59;4;4;
78408;PMS5003;67697;50.750;-3.270;2023-07-13T01:20:24;4;4;
78408;PMS5003;67697;50.750;-3.270;2023-07-13T01:22:49;4;4;
78408;PMS5003;67697;50.750;-3.270;2023-07-13T01:25:15;6;5;
78408;PMS5003;67697;50.750;-3.270;2023-07-13T01:27:41;7;7;
78408;PMS5003;67697;50.750;-3.270;2023-07-13T01:30:06;5;5;
78408;PMS5003;67697;50.750;-3.270;2023-07-13T01:32:32;5;4;
78408;PMS5003;67697;50.750;-3.270;2023-07-13T01:34:58;5;5;
78408;PMS5003;67697;50.750;-3.270;2023-07-13T01:37:23;5;5;
78408;PMS5003;67697;50.750;-3.270;2023-07-13T01:39:48;3;3;
78408;PMS5003;67697;50.750;-3.270;2023-07-13T01:42:14;4;4;
78408;PMS5003;67697;50.750;-3.270;2023-07-13T01:44:40;3;3;
78408;PMS5003;67697;50.750;-3.270;2023-07-13T01:47:05;5;5;
78408;PMS5003;67697;50.750;-3.270;2023-07-13T01:49:31;9;9;
78408;PMS5003;67697;50.750;-3.270;2023-07-13T01:51:56;7;5;
78408;PMS5003;67697;50.750;-3.270;2023-07-13T01:54:22;5;5;
78408;PMS5003;67697;50.750;-3.270;2023-07-13T01:56:47;4;4;
78408;PMS5003;67697;50.750;-3.270;2023-07-13T01:59:13;7;5;
78408;PMS5003;67697;50.750;-3.270;2023-07-13T02:01:38;5;4;
78408;PMS5003;67697;50.750;-3.270;2023-07-13T02:04:04;5;5;
78408;PMS5003;67697;50.750;-3.270;2023-07-13T02:06:29;4;4;
78408;PMS5003;67697;50.750;-3.270;2023-07-13T02:08:55;4;4;
78408;PMS5003;67697;50.750;-3.270;2023-07-13T02:11:21;6;5;
78408;PMS5003;67697;50.750;-3.270;2023-07-13T02:13:46;5;5;
78408;PMS5003;67697;50.750;-3.270;2023-07-13T02:18:37;3;3;
78408;PMS5003;67697;50.750;-3.270;2023-07-13T02:21:03;5;4;
78408;PMS5003;67697;50.750;-3.270;2023-07-13T02:23:28;5;5;
78408;PMS5003;67697;50.750;-3.270;2023-07-13T02:25:54;6;5;
78408;PMS5003;67697;50.750;-3.270;2023-07-13T02:28:19;6;6;
78408;PMS5003;67697;50.750;-3.270;2023-07-13T02:30:45;6;6;
78408;PMS5003;67697;50.750;-3.270;2023-07-13T02:33:10;4;4;
78408;PMS5003;67697;50.750;-3.270;2023-07-13T02:35:36;6;6;
78408;PMS5003;67697;50.750;-3.270;2023-07-13T02:38:02;5;5;
78408;PMS5003;67697;50.750;-3.270;2023-07-13T02:40:27;5;5;
78408;PMS5003;67697;50.750;-3.270;2023-07-13T02:42:53;4;4;
78408;PMS5003;67697;50.750;-3.270;2023-07-13T02:45:18;5;5;
78408;PMS5003;67697;50.750;-3.270;2023-07-13T02:47:44;6;6;
78408;PMS5003;67697;50.750;-3.270;2023-07-13T02:50:09;7;6;
78408;PMS5003;67697;50.750;-3.270;2023-07-13T02:52:35;4;4;
78408;PMS5003;67697;50.750;-3.270;2023-07-13T02:55:01;3;3;
78408;PMS5003;67697;50.750;-3.270;2023-07-13T02:57:26;3;3;
78408;PMS5003;67697;50.750;-3.270;2023-07-13T02:59:52;4;4;
78408;PMS5003;67697;50.750;-3.270;2023-07-13T03:02:17;5;4;
78408;PMS5003;67697;50.750;-3.270;2023-07-13T03:04:43;3;3;
78408;PMS5003;67697;50.750;-3.270;2023-07-13T03:07:09;5;4;
78408;PMS5003;67697;50.750;-3.270;2023-07-13T03:09:34;5;5;
78408;PMS5003;67697;50.750;-3.270;2023-07-13T03:11:59;5;5;
78408;PMS5003;67697;50.750;-3.270;2023-07-13T03:14:25;7;4;
78408;PMS5003;67697;50.750;-3.270;2023-07-13T03:16:50;4;4;
78408;PMS5003;67697;50.750;-3.270;2023-07-13T03:19:21;5;5;
78408;PMS5003;67697;50.750;-3.270;2023-07-13T03:21:42;4;4;
78408;PMS5003;67697;50.750;-3.270;2023-07-13T03:24:07;3;3;
78408;PMS5003;67697;50.750;-3.270;2023-07-13T03:26:33;4;4;
78408;PMS5003;67697;50.750;-3.270;2023-07-13T03:29:01;6;4;
78408;PMS5003;67697;50.750;-3.270;2023-07-13T03:31:25;4;4;
78408;PMS5003;67697;50.750;-3.270;2023-07-13T03:33:49;3;3;
78408;PMS5003;67697;50.750;-3.270;2023-07-13T03:36:17;4;4;
78408;PMS5003;67697;50.750;-3.270;2023-07-13T03:38:41;5;4;
78408;PMS5003;67697;50.750;-3.270;2023-07-13T03:41:06;4;4;
78408;PMS5003;67697;50.750;-3.270;2023-07-13T03:43:32;4;4;
78408;PMS5003;67697;50.750;-3.270;2023-07-13T03:45:58;4;3;
78408;PMS5003;67697;50.750;-3.270;2023-07-13T03:48:23;6;6;
78408;PMS5003;67697;50.750;-3.270;2023-07-13T03:50:48;5;5;
78408;PMS5003;67697;50.750;-3.270;2023-07-13T03:53:14;4;4;
78408;PMS5003;67697;50.750;-3.270;2023-07-13T03:55:40;4;4;
78408;PMS5003;67697;50.750;-3.270;2023-07-13T04:00:31;3;3;
78408;PMS5003;67697;50.750;-3.270;2023-07-13T04:02:56;5;4;
78408;PMS5003;67697;50.750;-3.270;2023-07-13T04:05:22;3;3;
78408;PMS5003;67697;50.750;-3.270;2023-07-13T04:07:47;3;3;
78408;PMS5003;67697;50.750;-3.270;2023-07-13T04:10:13;6;5;
78408;PMS5003;67697;50.750;-3.270;2023-07-13T04:12:44;3;3;
78408;PMS5003;67697;50.750;-3.270;2023-07-13T04:15:05;4;4;
78408;PMS5003;67697;50.750;-3.270;2023-07-13T04:17:30;5;3;
78408;PMS5003;67697;50.750;-3.270;2023-07-13T04:19:55;3;3;
78408;PMS5003;67697;50.750;-3.270;2023-07-13T04:22:21;4;4;
78408;PMS5003;67697;50.750;-3.270;2023-07-13T04:24:46;5;4;
78408;PMS5003;67697;50.750;-3.270;2023-07-13T04:27:13;4;4;
78408;PMS5003;67697;50.750;-3.270;2023-07-13T04:29:37;4;4;
78408;PMS5003;67697;50.750;-3.270;2023-07-13T04:32:03;3;3;
78408;PMS5003;67697;50.750;-3.270;2023-07-13T04:34:29;4;4;
78408;PMS5003;67697;50.750;-3.270;2023-07-13T04:36:59;6;5;
78408;PMS5003;67697;50.750;-3.270;2023-07-13T04:39:20;4;4;
78408;PMS5003;67697;50.750;-3.270;2023-07-13T04:41:45;5;5;
78408;PMS5003;67697;50.750;-3.270;2023-07-13T04:44:12;6;6;
78408;PMS5003;67697;50.750;-3.270;2023-07-13T04:46:37;5;5;
78408;PMS5003;67697;50.750;-3.270;2023-07-13T04:49:07;5;4;
78408;PMS5003;67697;50.750;-3.270;2023-07-13T04:51:28;5;4;
78408;PMS5003;67697;50.750;-3.270;2023-07-13T04:53:53;4;3;
78408;PMS5003;67697;50.750;-3.270;2023-07-13T04:56:19;3;3;
78408;PMS5003;67697;50.750;-3.270;2023-07-13T04:58:49;3;2;
78408;PMS5003;67697;50.750;-3.270;2023-07-13T05:01:10;4;4;
78408;PMS5003;67697;50.750;-3.270;2023-07-13T05:03:36;3;3;
78408;PMS5003;67697;50.750;-3.270;2023-07-13T05:06:02;3;3;
78408;PMS5003;67697;50.750;-3.270;2023-07-13T05:08:27;3;3;
78408;PMS5003;67697;50.750;-3.270;2023-07-13T05:10:59;5;5;
78408;PMS5003;67697;50.750;-3.270;2023-07-13T05:13:18;4;4;
78408;PMS5003;67697;50.750;-3.270;2023-07-13T05:15:43;2;2;
78408;PMS5003;67697;50.750;-3.270;2023-07-13T05:18:09;2;2;
78408;PMS5003;67697;50.750;-3.270;2023-07-13T05:20:34;4;3;
78408;PMS5003;67697;50.750;-3.270;2023-07-13T05:23:05;2;2;
78408;PMS5003;67697;50.750;-3.270;2023-07-13T05:25:26;4;4;
78408;PMS5003;67697;50.750;-3.270;2023-07-13T05:27:52;3;3;
78408;PMS5003;67697;50.750;-3.270;2023-07-13T05:30:17;2;2;
78408;PMS5003;67697;50.750;-3.270;2023-07-13T05:32:42;2;2;
78408;PMS5003;67697;50.750;-3.270;2023-07-13T05:35:08;3;3;
78408;PMS5003;67697;50.750;-3.270;2023-07-13T05:37:34;4;4;
78408;PMS5003;67697;50.750;-3.270;2023-07-13T05:39:59;4;4;
78408;PMS5003;67697;50.750;-3.270;2023-07-13T05:42:30;5;3;
78408;PMS5003;67697;50.750;-3.270;2023-07-13T05:44:50;2;2;
78408;PMS5003;67697;50.750;-3.270;2023-07-13T05:47:16;3;3;
78408;PMS5003;67697;50.750;-3.270;2023-07-13T05:49:41;2;2;
78408;PMS5003;67697;50.750;-3.270;2023-07-13T05:52:07;3;3;
78408;PMS5003;67697;50.750;-3.270;2023-07-13T05:54:33;3;3;
78408;PMS5003;67697;50.750;-3.270;2023-07-13T05:56:58;2;2;
78408;PMS5003;67697;50.750;-3.270;2023-07-13T05:59:24;3;3;
78408;PMS5003;67697;50.750;-3.270;2023-07-13T06:01:50;2;2;
78408;PMS5003;67697;50.750;-3.270;2023-07-13T06:04:15;2;2;
78408;PMS5003;67697;50.750;-3.270;2023-07-13T06:06:41;2;2;
78408;PMS5003;67697;50.750;-3.270;2023-07-13T06:09:06;2;2;
78408;PMS5003;67697;50.750;-3.270;2023-07-13T06:11:32;2;2;
78408;PMS5003;67697;50.750;-3.270;2023-07-13T06:13:59;2;2;
78408;PMS5003;67697;50.750;-3.270;2023-07-13T06:16:23;4;2;
78408;PMS5003;67697;50.750;-3.270;2023-07-13T06:18:48;3;2;
78408;PMS5003;67697;50.750;-3.270;2023-07-13T06:21:14;2;2;
78408;PMS5003;67697;50.750;-3.270;2023-07-13T06:23:39;2;2;
78408;PMS5003;67697;50.750;-3.270;2023-07-13T06:26:05;1;1;
78408;PMS5003;67697;50.750;-3.270;2023-07-13T06:28:30;1;1;
78408;PMS5003;67697;50.750;-3.270;2023-07-13T06:30:57;2;1;
78408;PMS5003;67697;50.750;-3.270;2023-07-13T06:33:21;3;1;
78408;PMS5003;67697;50.750;-3.270;2023-07-13T06:35:47;3;1;
78408;PMS5003;67697;50.750;-3.270;2023-07-13T06:38:13;3;3;
78408;PMS5003;67697;50.750;-3.270;2023-07-13T06:40:38;1;1;
78408;PMS5003;67697;50.750;-3.270;2023-07-13T06:43:03;3;3;
78408;PMS5003;67697;50.750;-3.270;2023-07-13T06:45:36;3;1;
78408;PMS5003;67697;50.750;-3.270;2023-07-13T06:47:54;1;1;
78408;PMS5003;67697;50.750;-3.270;2023-07-13T06:50:25;2;2;
78408;PMS5003;67697;50.750;-3.270;2023-07-13T06:52:45;2;2;
78408;PMS5003;67697;50.750;-3.270;2023-07-13T06:55:11;1;1;
78408;PMS5003;67697;50.750;-3.270;2023-07-13T06:57:37;3;2;
78408;PMS5003;67697;50.750;-3.270;2023-07-13T07:00:04;3;2;
78408;PMS5003;67697;50.750;-3.270;2023-07-13T07:02:28;2;2;
78408;PMS5003;67697;50.750;-3.270;2023-07-13T07:04:53;2;1;
78408;PMS5003;67697;50.750;-3.270;2023-07-13T07:07:29;1;1;
78408;PMS5003;67697;50.750;-3.270;2023-07-13T07:09:50;1;1;
78408;PMS5003;67697;50.750;-3.270;2023-07-13T07:12:15;3;2;
78408;PMS5003;67697;50.750;-3.270;2023-07-13T07:14:36;4;3;
78408;PMS5003;67697;50.750;-3.270;2023-07-13T07:17:01;3;3;
78408;PMS5003;67697;50.750;-3.270;2023-07-13T07:19:27;2;2;
78408;PMS5003;67697;50.750;-3.270;2023-07-13T07:21:58;4;2;
78408;PMS5003;67697;50.750;-3.270;2023-07-13T07:24:18;2;2;
78408;PMS5003;67697;50.750;-3.270;2023-07-13T07:26:43;2;2;
78408;PMS5003;67697;50.750;-3.270;2023-07-13T07:29:09;2;2;
78408;PMS5003;67697;50.750;-3.270;2023-07-13T07:31:35;3;3;
78408;PMS5003;67697;50.750;-3.270;2023-07-13T07:34:00;2;2;
78408;PMS5003;67697;50.750;-3.270;2023-07-13T07:36:25;3;3;
78408;PMS5003;67697;50.750;-3.270;2023-07-13T07:38:51;4;3;
78408;PMS5003;67697;50.750;-3.270;2023-07-13T07:41:22;2;2;
78408;PMS5003;67697;50.750;-3.270;2023-07-13T07:43:42;5;3;
78408;PMS5003;67697;50.750;-3.270;2023-07-13T07:46:08;3;3;
78408;PMS5003;67697;50.750;-3.270;2023-07-13T07:48:33;3;3;
78408;PMS5003;67697;50.750;-3.270;2023-07-13T07:50:59;5;5;
78408;PMS5003;67697;50.750;-3.270;2023-07-13T07:53:24;4;3;
78408;PMS5003;67697;50.750;-3.270;2023-07-13T07:55:50;5;5;
78408;PMS5003;67697;50.750;-3.270;2023-07-13T07:58:15;5;5;
78408;PMS5003;67697;50.750;-3.270;2023-07-13T08:00:41;6;5;
78408;PMS5003;67697;50.750;-3.270;2023-07-13T08:03:06;7;6;
78408;PMS5003;67697;50.750;-3.270;2023-07-13T08:05:32;4;4;
78408;PMS5003;67697;50.750;-3.270;2023-07-13T08:07:57;4;4;
78408;PMS5003;67697;50.750;-3.270;2023-07-13T08:10:23;5;5;
78408;PMS5003;67697;50.750;-3.270;2023-07-13T08:12:48;4;4;
78408;PMS5003;67697;50.750;-3.270;2023-07-13T08:17:44;3;3;
78408;PMS5003;67697;50.750;-3.270;2023-07-13T08:20:05;8;5;
78408;PMS5003;67697;50.750;-3.270;2023-07-13T08:22:30;4;4;
78408;PMS5003;67697;50.750;-3.270;2023-07-13T08:24:56;4;4;
78408;PMS5003;67697;50.750;-3.270;2023-07-13T08:27:22;5;4;
78408;PMS5003;67697;50.750;-3.270;2023-07-13T08:29:48;4;4;
78408;PMS5003;67697;50.750;-3.270;2023-07-13T08:32:14;6;5;
78408;PMS5003;67697;50.750;-3.270;2023-07-13T08:34:38;4;4;
78408;PMS5003;67697;50.750;-3.270;2023-07-13T08:37:04;4;4;
78408;PMS5003;67697;50.750;-3.270;2023-07-13T08:39:34;5;5;
78408;PMS5003;67697;50.750;-3.270;2023-07-13T08:41:56;5;4;
78408;PMS5003;67697;50.750;-3.270;2023-07-13T08:44:22;4;4;
78408;PMS5003;67697;50.750;-3.270;2023-07-13T08:46:46;6;4;
78408;PMS5003;67697;50.750;-3.270;2023-07-13T08:49:12;4;4;
78408;PMS5003;67697;50.750;-3.270;2023-07-13T08:51:39;4;4;
78408;PMS5003;67697;50.750;-3.270;2023-07-13T08:54:03;3;3;
78408;PMS5003;67697;50.750;-3.270;2023-07-13T08:56:28;4;4;
78408;PMS5003;67697;50.750;-3.270;2023-07-13T08:58:54;5;4;
78408;PMS5003;67697;50.750;-3.270;2023-07-13T09:01:19;5;3;
78408;PMS5003;67697;50.750;-3.270;2023-07-13T09:03:46;5;4;
78408;PMS5003;67697;50.750;-3.270;2023-07-13T09:06:09;4;4;
78408;PMS5003;67697;50.750;-3.270;2023-07-13T09:08:38;5;4;
78408;PMS5003;67697;50.750;-3.270;2023-07-13T09:11:03;4;3;
78408;PMS5003;67697;50.750;-3.270;2023-07-13T09:13:27;3;3;
78408;PMS5003;67697;50.750;-3.270;2023-07-13T09:15:56;2;2;
78408;PMS5003;67697;50.750;-3.270;2023-07-13T09:18:19;3;3;
78408;PMS5003;67697;50.750;-3.270;2023-07-13T09:20:44;6;5;
78408;PMS5003;67697;50.750;-3.270;2023-07-13T09:23:10;4;4;
78408;PMS5003;67697;50.750;-3.270;2023-07-13T09:25:34;4;4;
78408;PMS5003;67697;50.750;-3.270;2023-07-13T09:28:00;4;3;
78408;PMS5003;67697;50.750;-3.270;2023-07-13T09:30:26;3;3;
78408;PMS5003;67697;50.750;-3.270;2023-07-13T09:32:50;3;3;
78408;PMS5003;67697;50.750;-3.270;2023-07-13T09:35:16;3;3;
78408;PMS5003;67697;50.750;-3.270;2023-07-13T09:37:41;2;2;
78408;PMS5003;67697;50.750;-3.270;2023-07-13T09:40:08;3;3;
78408;PMS5003;67697;50.750;-3.270;2023-07-13T09:42:32;2;2;
78408;PMS5003;67697;50.750;-3.270;2023-07-13T09:47:37;4;4;
78408;PMS5003;67697;50.750;-3.270;2023-07-13T09:49:55;4;4;
78408;PMS5003;67697;50.750;-3.270;2023-07-13T09:52:14;3;3;
78408;PMS5003;67697;50.750;-3.270;2023-07-13T09:54:39;3;3;
78408;PMS5003;67697;50.750;-3.270;2023-07-13T09:57:11;6;6;
78408;PMS5003;67697;50.750;-3.270;2023-07-13T09:59:33;5;5;
78408;PMS5003;67697;50.750;-3.270;2023-07-13T10:01:56;4;4;
78408;PMS5003;67697;50.750;-3.270;2023-07-13T10:04:27;4;4;
78408;PMS5003;67697;50.750;-3.270;2023-07-13T10:06:47;3;3;
78408;PMS5003;67697;50.750;-3.270;2023-07-13T10:09:15;3;3;
78408;PMS5003;67697;50.750;-3.270;2023-07-13T10:11:38;1;1;
78408;PMS5003;67697;50.750;-3.270;2023-07-13T10:14:09;2;2;
78408;PMS5003;67697;50.750;-3.270;2023-07-13T10:16:29;0;0;
78408;PMS5003;67697;50.750;-3.270;2023-07-13T10:18:55;2;2;
78408;PMS5003;67697;50.750;-3.270;2023-07-13T10:21:21;1;1;
78408;PMS5003;67697;50.750;-3.270;2023-07-13T10:23:47;1;1;
78408;PMS5003;67697;50.750;-3.270;2023-07-13T10:26:13;4;1;
78408;PMS5003;67697;50.750;-3.270;2023-07-13T10:28:37;1;1;
78408;PMS5003;67697;50.750;-3.270;2023-07-13T10:31:02;2;1;
78408;PMS5003;67697;50.750;-3.270;2023-07-13T10:33:27;2;1;
78408;PMS5003;67697;50.750;-3.270;2023-07-13T10:35:56;1;1;
78408;PMS5003;67697;50.750;-3.270;2023-07-13T10:38:20;2;1;
78408;PMS5003;67697;50.750;-3.270;2023-07-13T10:40:45;1;1;
78408;PMS5003;67697;50.750;-3.270;2023-07-13T10:43:11;0;0;
78408;PMS5003;67697;50.750;-3.270;2023-07-13T10:45:35;1;1;
78408;PMS5003;67697;50.750;-3.270;2023-07-13T10:48:00;0;0;
78408;PMS5003;67697;50.750;-3.270;2023-07-13T10:50:27;2;1;
78408;PMS5003;67697;50.750;-3.270;2023-07-13T10:52:52;1;1;
78408;PMS5003;67697;50.750;-3.270;2023-07-13T10:57:42;1;1;
78408;PMS5003;67697;50.750;-3.270;2023-07-13T11:00:14;1;1;
78408;PMS5003;67697;50.750;-3.270;2023-07-13T11:02:33;1;1;
78408;PMS5003;67697;50.750;-3.270;2023-07-13T11:04:59;1;1;
78408;PMS5003;67697;50.750;-3.270;2023-07-13T11:07:26;1;1;
78408;PMS5003;67697;50.750;-3.270;2023-07-13T11:09:50;0;0;
78408;PMS5003;67697;50.750;-3.270;2023-07-13T11:14:43;2;2;
78408;PMS5003;67697;50.750;-3.270;2023-07-13T11:22:10;1;1;
78408;PMS5003;67697;50.750;-3.270;2023-07-13T11:24:28;2;2;
78408;PMS5003;67697;50.750;-3.270;2023-07-13T11:26:51;2;2;
78408;PMS5003;67697;50.750;-3.270;2023-07-13T11:31:51;2;2;
78408;PMS5003;67697;50.750;-3.270;2023-07-13T11:34:06;2;2;
78408;PMS5003;67697;50.750;-3.270;2023-07-13T11:38:57;2;2;
78408;PMS5003;67697;50.750;-3.270;2023-07-13T11:41:22;6;6;
78408;PMS5003;67697;50.750;-3.270;2023-07-13T11:46:15;3;3;
78408;PMS5003;67697;50.750;-3.270;2023-07-13T11:48:40;5;5;
78408;PMS5003;67697;50.750;-3.270;2023-07-13T11:51:04;5;3;
78408;PMS5003;67697;50.750;-3.270;2023-07-13T11:53:30;2;2;
78408;PMS5003;67697;50.750;-3.270;2023-07-13T11:55:54;3;1;
78408;PMS5003;67697;50.750;-3.270;2023-07-13T11:58:22;1;1;
78408;PMS5003;67697;50.750;-3.270;2023-07-13T12:00:45;4;3;
78408;PMS5003;67697;50.750;-3.270;2023-07-13T12:03:12;3;1;
78408;PMS5003;67697;50.750;-3.270;2023-07-13T12:05:36;1;1;
78408;PMS5003;67697;50.750;-3.270;2023-07-13T12:10:28;0;0;
78408;PMS5003;67697;50.750;-3.270;2023-07-13T12:12:54;1;1;
78408;PMS5003;67697;50.750;-3.270;2023-07-13T12:15:19;1;1;
78408;PMS5003;67697;50.750;-3.270;2023-07-13T12:20:14;2;2;
78408;PMS5003;67697;50.750;-3.270;2023-07-13T12:22:35;2;2;
78408;PMS5003;67697;50.750;-3.270;2023-07-13T12:25:01;1;1;
78408;PMS5003;67697;50.750;-3.270;2023-07-13T12:27:27;2;2;
78408;PMS5003;67697;50.750;-3.270;2023-07-13T12:29:52;2;1;
78408;PMS5003;67697;50.750;-3.270;2023-07-13T12:32:17;2;2;
78408;PMS5003;67697;50.750;-3.270;2023-07-13T12:34:51;2;2;
78408;PMS5003;67697;50.750;-3.270;2023-07-13T12:37:08;3;3;
78408;PMS5003;67697;50.750;-3.270;2023-07-13T12:39:35;1;1;
78408;PMS5003;67697;50.750;-3.270;2023-07-13T12:44:27;4;3;
78408;PMS5003;67697;50.750;-3.270;2023-07-13T12:46:52;1;1;
78408;PMS5003;67697;50.750;-3.270;2023-07-13T12:49:17;2;2;
78408;PMS5003;67697;50.750;-3.270;2023-07-13T12:51:41;3;3;
78408;PMS5003;67697;50.750;-3.270;2023-07-13T12:54:15;4;4;
78408;PMS5003;67697;50.750;-3.270;2023-07-13T12:56:33;2;2;
78408;PMS5003;67697;50.750;-3.270;2023-07-13T12:59:00;2;2;
78408;PMS5003;67697;50.750;-3.270;2023-07-13T13:01:25;3;3;
78408;PMS5003;67697;50.750;-3.270;2023-07-13T13:03:49;5;5;
78408;PMS5003;67697;50.750;-3.270;2023-07-13T13:06:20;8;4;
78408;PMS5003;67697;50.750;-3.270;2023-07-13T13:08:40;5;5;
78408;PMS5003;67697;50.750;-3.270;2023-07-13T13:11:05;4;4;
78408;PMS5003;67697;50.750;-3.270;2023-07-13T13:13:31;3;3;
78408;PMS5003;67697;50.750;-3.270;2023-07-13T13:18:22;7;4;
78408;PMS5003;67697;50.750;-3.270;2023-07-13T13:20:47;5;4;
78408;PMS5003;67697;50.750;-3.270;2023-07-13T13:23:13;4;4;
78408;PMS5003;67697;50.750;-3.270;2023-07-13T13:25:38;5;5;
78408;PMS5003;67697;50.750;-3.270;2023-07-13T13:30:30;3;3;
78408;PMS5003;67697;50.750;-3.270;2023-07-13T13:32:55;2;2;
78408;PMS5003;67697;50.750;-3.270;2023-07-13T13:35:20;3;3;
78408;PMS5003;67697;50.750;-3.270;2023-07-13T13:37:46;4;4;
78408;PMS5003;67697;50.750;-3.270;2023-07-13T13:40:14;3;3;
78408;PMS5003;67697;50.750;-3.270;2023-07-13T13:42:37;4;3;
78408;PMS5003;67697;50.750;-3.270;2023-07-13T13:47:31;3;3;
78408;PMS5003;67697;50.750;-3.270;2023-07-13T13:49:53;4;4;
78408;PMS5003;67697;50.750;-3.270;2023-07-13T13:52:18;4;3;
78408;PMS5003;67697;50.750;-3.270;2023-07-13T13:54:44;7;5;
78408;PMS5003;67697;50.750;-3.270;2023-07-13T13:57:09;6;4;
78408;PMS5003;67697;50.750;-3.270;2023-07-13T13:59:34;9;7;
78408;PMS5003;67697;50.750;-3.270;2023-07-13T14:04:26;5;5;
78408;PMS5003;67697;50.750;-3.270;2023-07-13T14:06:51;4;4;
78408;PMS5003;67697;50.750;-3.270;2023-07-13T14:09:17;5;5;
78408;PMS5003;67697;50.750;-3.270;2023-07-13T14:11:42;3;3;
78408;PMS5003;67697;50.750;-3.270;2023-07-13T14:14:09;3;3;
78408;PMS5003;67697;50.750;-3.270;2023-07-13T14:16:33;6;4;
78408;PMS5003;67697;50.750;-3.270;2023-07-13T14:21:25;6;3;
78408;PMS5003;67697;50.750;-3.270;2023-07-13T14:23:49;6;4;
78408;PMS5003;67697;50.750;-3.270;2023-07-13T14:26:16;4;4;
78408;PMS5003;67697;50.750;-3.270;2023-07-13T14:28:41;3;3;
78408;PMS5003;67697;50.750;-3.270;2023-07-13T14:31:07;4;4;
78408;PMS5003;67697;50.750;-3.270;2023-07-13T14:33:31;5;4;
78408;PMS5003;67697;50.750;-3.270;2023-07-13T14:35:57;5;4;
78408;PMS5003;67697;50.750;-3.270;2023-07-13T14:38:23;3;3;
78408;PMS5003;67697;50.750;-3.270;2023-07-13T14:40:53;3;3;
78408;PMS5003;67697;50.750;-3.270;2023-07-13T14:45:39;3;3;
78408;PMS5003;67697;50.750;-3.270;2023-07-13T14:50:35;3;3;
78408;PMS5003;67697;50.750;-3.270;2023-07-13T14:53:00;4;4;
78408;PMS5003;67697;50.750;-3.270;2023-07-13T14:55:21;7;3;
78408;PMS5003;67697;50.750;-3.270;2023-07-13T14:57:46;3;2;
78408;PMS5003;67697;50.750;-3.270;2023-07-13T15:00:13;3;3;
78408;PMS5003;67697;50.750;-3.270;2023-07-13T15:02:42;4;4;
78408;PMS5003;67697;50.750;-3.270;2023-07-13T15:05:05;3;3;
78408;PMS5003;67697;50.750;-3.270;2023-07-13T15:07:29;2;2;
78408;PMS5003;67697;50.750;-3.270;2023-07-13T15:09:54;1;1;
78408;PMS5003;67697;50.750;-3.270;2023-07-13T15:12:24;4;4;
78408;PMS5003;67697;50.750;-3.270;2023-07-13T15:14:44;2;1;
78408;PMS5003;67697;50.750;-3.270;2023-07-13T15:19:36;3;2;
78408;PMS5003;67697;50.750;-3.270;2023-07-13T15:24:27;3;3;
78408;PMS5003;67697;50.750;-3.270;2023-07-13T15:26:52;2;2;
78408;PMS5003;67697;50.750;-3.270;2023-07-13T15:29:17;3;2;
78408;PMS5003;67697;50.750;-3.270;2023-07-13T15:31:43;2;2;
78408;PMS5003;67697;50.750;-3.270;2023-07-13T15:34:10;2;2;
78408;PMS5003;67697;50.750;-3.270;2023-07-13T15:36:35;5;3;
78408;PMS5003;67697;50.750;-3.270;2023-07-13T15:38:59;3;3;
78408;PMS5003;67697;50.750;-3.270;2023-07-13T15:41:30;4;4;
78408;PMS5003;67697;50.750;-3.270;2023-07-13T15:43:51;5;3;
78408;PMS5003;67697;50.750;-3.270;2023-07-13T15:48:41;3;3;
78408;PMS5003;67697;50.750;-3.270;2023-07-13T15:51:09;2;2;
78408;PMS5003;67697;50.750;-3.270;2023-07-13T15:53:33;4;3;
78408;PMS5003;67697;50.750;-3.270;2023-07-13T15:55:58;5;4;
78408;PMS5003;67697;50.750;-3.270;2023-07-13T15:58:23;4;4;
78408;PMS5003;67697;50.750;-3.270;2023-07-13T16:00:48;3;3;
78408;PMS5003;67697;50.750;-3.270;2023-07-13T16:03:14;4;3;
78408;PMS5003;67697;50.750;-3.270;2023-07-13T16:05:41;3;3;
78408;PMS5003;67697;50.750;-3.270;2023-07-13T16:08:05;4;3;
78408;PMS5003;67697;50.750;-3.270;2023-07-13T16:10:32;3;3;
78408;PMS5003;67697;50.750;-3.270;2023-07-13T16:12:56;3;3;
78408;PMS5003;67697;50.750;-3.270;2023-07-13T16:15:21;5;5;
78408;PMS5003;67697;50.750;-3.270;2023-07-13T16:17:47;3;3;
78408;PMS5003;67697;50.750;-3.270;2023-07-13T16:20:13;5;5;
78408;PMS5003;67697;50.750;-3.270;2023-07-13T16:22:38;6;4;
78408;PMS5003;67697;50.750;-3.270;2023-07-13T16:27:28;4;4;
78408;PMS5003;67697;50.750;-3.270;2023-07-13T16:29:54;4;4;
78408;PMS5003;67697;50.750;-3.270;2023-07-13T16:32:19;4;4;
78408;PMS5003;67697;50.750;-3.270;2023-07-13T16:34:50;3;3;
78408;PMS5003;67697;50.750;-3.270;2023-07-13T16:37:13;4;4;
78408;PMS5003;67697;50.750;-3.270;2023-07-13T16:39:36;7;7;
78408;PMS5003;67697;50.750;-3.270;2023-07-13T16:44:27;7;7;
78408;PMS5003;67697;50.750;-3.270;2023-07-13T16:46:53;6;6;
78408;PMS5003;67697;50.750;-3.270;2023-07-13T16:49:20;6;6;
78408;PMS5003;67697;50.750;-3.270;2023-07-13T16:51:44;8;7;
78408;PMS5003;67697;50.750;-3.270;2023-07-13T16:54:09;5;5;
78408;PMS5003;67697;50.750;-3.270;2023-07-13T16:56:35;5;5;
78408;PMS5003;67697;50.750;-3.270;2023-07-13T16:59:00;9;9;
78408;PMS5003;67697;50.750;-3.270;2023-07-13T17:01:25;7;7;
78408;PMS5003;67697;50.750;-3.270;2023-07-13T17:03:51;7;7;
78408;PMS5003;67697;50.750;-3.270;2023-07-13T17:06:22;9;8;
78408;PMS5003;67697;50.750;-3.270;2023-07-13T17:08:43;9;7;
78408;PMS5003;67697;50.750;-3.270;2023-07-13T17:11:08;11;9;
78408;PMS5003;67697;50.750;-3.270;2023-07-13T17:13:38;6;5;
78408;PMS5003;67697;50.750;-3.270;2023-07-13T17:15:58;7;7;
78408;PMS5003;67697;50.750;-3.270;2023-07-13T17:18:24;6;6;
78408;PMS5003;67697;50.750;-3.270;2023-07-13T17:20:50;7;7;
78408;PMS5003;67697;50.750;-3.270;2023-07-13T17:23:15;4;4;